Flight Track Log - Related Links

Times and Time Zones

All times are in EST time to prevent confusion due to time zone crossing. See the TAM3520 flight status page for this flight to view local times or setup timezone preferences in your user account.

Time Position Orientation Groundspeed Altitude Reporting Facility
EST Latitude Longitude Course Direction KTS MPH feet Rate Location/Type
Mon 09:34:00 PM -15.3979 -46.2967 74° East  Level Estimated
Mon 09:35:00 PM -15.3702 -46.2019 73° East  Level Estimated
Mon 09:36:00 PM -15.3424 -46.1071 73° East  Level Estimated
Mon 09:37:00 PM -15.3146 -46.0123 73° East  Level Estimated
Mon 09:38:00 PM -15.2868 -45.9176 73° East  Level Estimated
Mon 09:39:00 PM -15.2590 -45.8228 73° East  Level Estimated
Mon 09:40:00 PM -15.2311 -45.7281 73° East  Level Estimated
Mon 09:41:00 PM -15.2031 -45.6335 73° East  Level Estimated
Mon 09:42:00 PM -15.1751 -45.5388 73° East  Level Estimated
Mon 09:43:00 PM -15.1471 -45.4442 73° East  Level Estimated
Mon 09:44:00 PM -15.1191 -45.3496 73° East  Level Estimated
Mon 09:45:00 PM -15.0910 -45.2550 73° East  Level Estimated
Mon 09:46:00 PM -15.0628 -45.1604 73° East  Level Estimated
Mon 09:47:00 PM -15.0346 -45.0659 73° East  Level Estimated
Mon 09:48:00 PM -15.0064 -44.9714 73° East  Level Estimated
Mon 09:49:00 PM -14.9782 -44.8769 73° East  Level Estimated
Mon 09:50:00 PM -14.9499 -44.7825 73° East  Level Estimated
Mon 09:51:00 PM -14.9215 -44.6881 73° East  Level Estimated
Mon 09:52:00 PM -14.8932 -44.5937 73° East  Level Estimated
Mon 09:53:00 PM -14.8648 -44.4993 73° East  Level Estimated
Mon 09:54:00 PM -14.8363 -44.4049 73° East  Level Estimated
Mon 09:55:00 PM -14.8078 -44.3106 73° East  Level Estimated
Mon 09:56:00 PM -14.7793 -44.2163 73° East  Level Estimated
Mon 09:57:00 PM -14.7507 -44.1220 73° East  Level Estimated
Mon 09:58:00 PM -14.7221 -44.0278 73° East  Level Estimated
Mon 09:59:00 PM -14.6935 -43.9335 73° East  Level Estimated
Mon 10:00:00 PM -14.6648 -43.8393 73° East  Level Estimated
Mon 10:01:00 PM -14.6361 -43.7452 73° East  Level Estimated
Mon 10:02:00 PM -14.6074 -43.6510 72° East  Level Estimated
Mon 10:03:00 PM -14.5786 -43.5569 72° East  Level Estimated
Mon 10:04:00 PM -14.5497 -43.4628 72° East  Level Estimated
Mon 10:05:00 PM -14.5209 -43.3687 72° East  Level Estimated
Mon 10:06:00 PM -14.4920 -43.2746 72° East  Level Estimated
Mon 10:07:00 PM -14.4630 -43.1806 72° East  Level Estimated
Mon 10:08:00 PM -14.4340 -43.0866 72° East  Level Estimated
Mon 10:09:00 PM -14.4050 -42.9926 72° East  Level Estimated
Mon 10:10:00 PM -14.3760 -42.8987 72° East  Level Estimated
Mon 10:11:00 PM -14.3469 -42.8047 72° East  Level Estimated
Mon 10:12:00 PM -14.3177 -42.7108 72° East  Level Estimated
Mon 10:13:00 PM -14.2886 -42.6169 72° East  Level Estimated
Mon 10:14:00 PM -14.2594 -42.5231 72° East  Level Estimated
Mon 10:15:00 PM -14.2302 -42.4292 72° East  Level Estimated
Mon 10:16:00 PM -14.2009 -42.3354 72° East  Level Estimated
Mon 10:17:00 PM -14.1716 -42.2416 72° East  Level Estimated
Mon 10:18:00 PM -14.1422 -42.1479 72° East  Level Estimated
Mon 10:19:00 PM -14.1128 -42.0541 72° East  Level Estimated
Mon 10:20:00 PM -14.0834 -41.9604 72° East  Level Estimated
Mon 10:21:00 PM -14.0540 -41.8667 72° East  Level Estimated
Mon 10:22:00 PM -14.0245 -41.7731 72° East  Level Estimated
Mon 10:23:00 PM -13.9949 -41.6794 72° East  Level Estimated
Mon 10:24:00 PM -13.9654 -41.5858 72° East  Level Estimated
Mon 10:25:00 PM -13.9358 -41.4922 72° East  Level Estimated
Mon 10:26:00 PM -13.9061 -41.3987 72° East  Level Estimated
Mon 10:27:00 PM -13.8765 -41.3051 72° East  Level Estimated
Mon 10:28:00 PM -13.8468 -41.2116 72° East  Level Estimated
Mon 10:29:00 PM -13.8170 -41.1181 72° East  Level Estimated
Mon 10:30:00 PM -13.7872 -41.0246 72° East  Level Estimated
Mon 10:31:00 PM -13.7574 -40.9312 72° East  Level Estimated
Mon 10:32:00 PM -13.7276 -40.8377 72° East  Level Estimated
Mon 10:33:00 PM -13.6977 -40.7443 72° East  Level Estimated
Mon 10:34:00 PM -13.6678 -40.6510 72° East  Level Estimated
Mon 10:35:00 PM -13.6378 -40.5576 72° East  Level Estimated
Mon 10:36:00 PM -13.6078 -40.4643 72° East  Level Estimated
Mon 10:37:00 PM -13.5778 -40.3710 72° East  Level Estimated
Mon 10:38:00 PM -13.5478 -40.2777 72° East  Level Estimated
Mon 10:39:00 PM -13.5177 -40.1844 72° East  Level Estimated
Mon 10:40:00 PM -13.4875 -40.0912 72° East  Level Estimated
Mon 10:41:00 PM -13.4574 -39.9980 72° East  Level Estimated
Mon 10:42:00 PM -13.4272 -39.9048 72° East  Level Estimated
Mon 10:43:00 PM -13.3969 -39.8116 72° East  Level Estimated
Mon 10:44:00 PM -13.3667 -39.7185 72° East  Level Estimated
Mon 10:45:00 PM -13.3364 -39.6254 72° East  Level Estimated
Mon 10:46:00 PM -13.3061 -39.5322 71° East  Level Estimated
Mon 10:47:00 PM -13.2757 -39.4392 71° East  Level Estimated
Mon 10:48:00 PM -13.2453 -39.3461 71° East  Level Estimated
Mon 10:49:00 PM -13.2149 -39.2531 71° East  Level Estimated
Mon 10:50:00 PM -13.1844 -39.1601 71° East  Level Estimated
Mon 10:51:00 PM -13.1539 -39.0671 71° East  Level Estimated
Mon 10:52:00 PM -13.1234 -38.9742 71° East  Level Estimated
Mon 10:53:00 PM -13.0928 -38.8812 71° East  Level Estimated
Mon 10:54:00 PM -13.0622 -38.7883 71° East  Level Estimated
Mon 10:55:00 PM -13.0316 -38.6954 71° East  Level Estimated
Mon 10:56:00 PM -13.0009 -38.6026 71° East  Level Estimated
Mon 10:57:00 PM -12.9702 -38.5097 71° East  Level Estimated
Mon 10:58:00 PM -12.9395 -38.4169 71° East  Level Estimated
Mon 10:59:00 PM -12.9110 -38.3310 71° East  Level Estimated
Mon 11:00:00 PM -12.9110 -38.3310 224° Southwest  Level Estimated
Mon 11:01:00 PM -12.9110 -38.3310 224° Southwest  Level Estimated
Mon 11:02:00 PM -12.9110 -38.3310 224° Southwest  Level Estimated
Mon 11:03:00 PM -12.9110 -38.3310 224° Southwest  Level Estimated
Mon 11:04:00 PM -12.9110 -38.3310 224° Southwest  Level Estimated
Mon 11:05:00 PM -12.9110 -38.3310 224° Southwest  Level Estimated
Mon 11:06:00 PM -12.9110 -38.3310 224° Southwest  Level Estimated
Mon 11:07:00 PM -12.9110 -38.3310 224° Southwest  Level Estimated
Mon 11:08:00 PM -12.9110 -38.3310 224° Southwest  Level Estimated
Mon 11:09:00 PM -12.9110 -38.3310 224° Southwest  Level Estimated
Mon 11:10:00 PM -12.9110 -38.3310 224° Southwest  Level Estimated
Mon 11:11:00 PM -12.9110 -38.3310 224° Southwest  Level Estimated
Mon 11:12:00 PM -12.9110 -38.3310 224° Southwest  Level Estimated
Mon 11:13:00 PM -12.9110 -38.3310 224° Southwest  Level Estimated
Mon 11:14:00 PM -12.9110 -38.3310 224° Southwest  Level Estimated
Mon 11:15:00 PM -12.9110 -38.3310 224° Southwest  Level Estimated

Login

Don't have an account? Register now (free) for customized features, flight alerts, and more!